createdAt,value
2023-05-05T00:01:48.972Z,7.20
2023-05-05T00:04:17.847Z,7.30
2023-05-05T00:06:44.760Z,7.20
2023-05-05T00:09:11.561Z,7.20
2023-05-05T00:11:38.553Z,7.40
2023-05-05T00:14:05.676Z,7.30
2023-05-05T00:16:32.668Z,7.20
2023-05-05T00:19:00.311Z,7.20
2023-05-05T00:21:28.093Z,7.10
2023-05-05T00:23:54.891Z,7.00
2023-05-05T00:26:22.015Z,7.10
2023-05-05T00:28:49.158Z,7.30
2023-05-05T00:31:16.873Z,7.30
2023-05-05T00:33:43.706Z,7.20
2023-05-05T00:36:10.704Z,7.10
2023-05-05T00:38:38.148Z,7.10
2023-05-05T00:41:05.280Z,7.20
2023-05-05T00:43:32.526Z,7.20
2023-05-05T00:46:05.945Z,7.10
2023-05-05T00:48:33.297Z,7.10
2023-05-05T00:51:00.218Z,7.10
2023-05-05T00:53:28.311Z,6.90
2023-05-05T00:55:55.125Z,6.90
2023-05-05T00:58:22.169Z,7.00
2023-05-05T01:00:49.273Z,7.00
2023-05-05T01:03:16.292Z,7.10
2023-05-05T01:05:56.129Z,7.00
2023-05-05T01:08:57.025Z,7.10
2023-05-05T01:11:27.181Z,7.00
2023-05-05T01:14:11.960Z,6.70
2023-05-05T01:16:43.834Z,6.90
2023-05-05T01:19:29.399Z,7.00
2023-05-05T01:22:02.368Z,7.00
2023-05-05T01:24:31.899Z,7.00
2023-05-05T01:27:26.057Z,7.00
2023-05-05T01:30:17.643Z,7.10
2023-05-05T01:32:55.512Z,7.30
2023-05-05T01:35:37.735Z,7.30
2023-05-05T01:38:04.497Z,7.30
2023-05-05T01:40:35.874Z,7.20
2023-05-05T01:43:03.776Z,7.00
2023-05-05T01:45:33.634Z,7.00
2023-05-05T01:48:02.122Z,7.10
2023-05-05T01:50:29.366Z,6.90
2023-05-05T01:52:57.752Z,6.60
2023-05-05T01:55:28.035Z,6.60
2023-05-05T01:57:56.931Z,6.70
2023-05-05T02:00:25.290Z,6.80
2023-05-05T02:02:54.794Z,6.90
2023-05-05T02:05:23.771Z,6.90
2023-05-05T02:07:57.033Z,7.00
2023-05-05T02:10:24.237Z,7.00
2023-05-05T02:12:52.296Z,6.90
2023-05-05T02:15:21.344Z,6.80
2023-05-05T02:17:52.259Z,6.70
2023-05-05T02:20:20.448Z,6.50
2023-05-05T02:22:47.457Z,6.40
2023-05-05T02:25:14.571Z,6.50
2023-05-05T02:27:43.940Z,6.40
2023-05-05T02:30:15.929Z,6.50
2023-05-05T02:32:55.238Z,6.50
2023-05-05T02:35:26.972Z,6.60
2023-05-05T02:38:02.576Z,6.60
2023-05-05T02:40:34.636Z,6.50
2023-05-05T02:43:04.700Z,6.50
2023-05-05T02:45:31.573Z,6.50
2023-05-05T02:48:03.225Z,6.30
2023-05-05T02:50:31.561Z,6.30
2023-05-05T02:52:59.539Z,6.20
2023-05-05T02:55:50.288Z,6.20
2023-05-05T02:58:34.661Z,6.40
2023-05-05T03:01:25.769Z,6.50
2023-05-05T03:04:15.548Z,6.50
2023-05-05T03:06:45.565Z,6.40
2023-05-05T03:09:21.292Z,6.30
2023-05-05T03:11:54.784Z,6.10
2023-05-05T03:14:22.646Z,6.00
2023-05-05T03:16:50.429Z,6.00
2023-05-05T03:19:19.195Z,5.80
2023-05-05T03:21:46.275Z,5.80
2023-05-05T03:24:20.347Z,5.70
2023-05-05T03:26:48.544Z,5.80
2023-05-05T03:29:16.017Z,5.90
2023-05-05T03:31:43.241Z,6.00
2023-05-05T03:34:10.180Z,6.10
2023-05-05T03:36:37.085Z,6.10
2023-05-05T03:39:04.149Z,6.00
2023-05-05T03:41:30.999Z,5.80
2023-05-05T03:43:57.769Z,5.90
2023-05-05T03:46:24.624Z,6.10
2023-05-05T03:48:51.803Z,5.90
2023-05-05T03:51:18.618Z,5.80
2023-05-05T03:53:45.608Z,5.70
2023-05-05T03:56:12.432Z,5.80
2023-05-05T03:58:39.209Z,5.70
2023-05-05T04:01:06.015Z,5.70
2023-05-05T04:03:32.949Z,5.70
2023-05-05T04:06:00.027Z,5.80
2023-05-05T04:08:26.916Z,5.90
2023-05-05T04:10:53.709Z,6.00
2023-05-05T04:13:20.508Z,5.90
2023-05-05T04:15:47.321Z,5.90
2023-05-05T04:18:14.159Z,5.90
2023-05-05T04:20:41.117Z,6.00
2023-05-05T04:23:08.097Z,6.10
2023-05-05T04:25:35.037Z,6.30
2023-05-05T04:28:01.859Z,6.30
2023-05-05T04:30:28.750Z,6.30
2023-05-05T04:32:55.587Z,6.40
2023-05-05T04:35:22.518Z,6.40
2023-05-05T04:37:49.453Z,6.50
2023-05-05T04:40:16.251Z,6.60
2023-05-05T04:42:43.044Z,6.70
2023-05-05T04:45:10.317Z,6.70
2023-05-05T04:47:40.716Z,6.80
2023-05-05T04:50:08.488Z,6.90
2023-05-05T04:52:35.828Z,7.00
2023-05-05T04:55:02.746Z,7.00
2023-05-05T04:57:30.742Z,7.10
2023-05-05T04:59:59.538Z,7.20
2023-05-05T05:02:27.136Z,7.30
2023-05-05T05:04:53.989Z,7.40
2023-05-05T05:07:20.843Z,7.50
2023-05-05T05:09:47.599Z,7.50
2023-05-05T05:12:14.363Z,7.70
2023-05-05T05:14:41.182Z,7.70
2023-05-05T05:17:07.987Z,7.90
2023-05-05T05:19:34.775Z,8.00
2023-05-05T05:22:01.543Z,8.00
2023-05-05T05:24:28.422Z,8.10
2023-05-05T05:26:55.352Z,8.20
2023-05-05T05:29:22.251Z,8.40
2023-05-05T05:31:50.152Z,8.60
2023-05-05T05:34:16.990Z,8.60
2023-05-05T05:36:43.749Z,8.70
2023-05-05T05:39:10.533Z,8.90
2023-05-05T05:41:37.279Z,9.00
2023-05-05T05:44:04.138Z,9.10
2023-05-05T05:46:30.993Z,9.20
2023-05-05T05:48:57.851Z,9.50
2023-05-05T05:51:24.629Z,9.60
2023-05-05T05:53:51.920Z,9.80
2023-05-05T05:56:18.753Z,9.90
2023-05-05T05:58:45.690Z,10.20
2023-05-05T06:01:12.579Z,10.40
2023-05-05T06:03:39.486Z,10.70
2023-05-05T06:06:07.580Z,10.90
2023-05-05T06:08:34.432Z,11.20
2023-05-05T06:11:01.263Z,11.40
2023-05-05T06:13:28.053Z,11.60
2023-05-05T06:15:54.881Z,11.90
2023-05-05T06:18:21.678Z,12.20
2023-05-05T06:20:52.351Z,12.60
2023-05-05T06:23:19.377Z,12.90
2023-05-05T06:25:46.223Z,13.00
2023-05-05T06:28:13.094Z,13.10
2023-05-05T06:30:39.871Z,12.90
2023-05-05T06:33:06.706Z,12.90
2023-05-05T06:35:34.724Z,13.10
2023-05-05T06:38:01.551Z,13.30
2023-05-05T06:40:29.419Z,13.40
2023-05-05T06:42:56.323Z,13.70
2023-05-05T06:45:23.210Z,13.60
2023-05-05T06:47:50.069Z,13.70
2023-05-05T06:50:17.054Z,13.80
2023-05-05T06:52:43.814Z,13.70
2023-05-05T06:55:10.690Z,13.80
2023-05-05T06:57:37.470Z,13.90
2023-05-05T07:00:06.076Z,14.10
2023-05-05T07:02:33.776Z,14.20
2023-05-05T07:05:00.807Z,14.20
2023-05-05T07:07:27.632Z,14.20
2023-05-05T07:09:54.412Z,14.50
2023-05-05T07:12:21.266Z,14.50
2023-05-05T07:14:48.051Z,14.50
2023-05-05T07:17:14.836Z,14.60
2023-05-05T07:19:41.837Z,14.80
2023-05-05T07:22:08.602Z,15.00
2023-05-05T07:24:35.347Z,15.20
2023-05-05T07:27:02.709Z,15.40
2023-05-05T07:29:29.522Z,15.50
2023-05-05T07:31:56.362Z,15.50
2023-05-05T07:34:23.288Z,15.30
2023-05-05T07:36:50.287Z,15.40
2023-05-05T07:39:19.368Z,15.50
2023-05-05T07:41:46.254Z,15.70
2023-05-05T07:44:13.115Z,15.60
2023-05-05T07:46:39.890Z,15.70
2023-05-05T07:49:06.787Z,15.80
2023-05-05T07:51:34.849Z,15.90
2023-05-05T07:54:01.868Z,16.10
2023-05-05T07:56:28.789Z,16.30
2023-05-05T07:58:55.794Z,16.20
2023-05-05T08:01:22.830Z,16.20
2023-05-05T08:03:49.697Z,16.20
2023-05-05T08:06:17.984Z,16.00
2023-05-05T08:08:44.798Z,16.20
2023-05-05T08:11:11.590Z,16.50
2023-05-05T08:13:39.266Z,16.60
2023-05-05T08:16:06.525Z,16.80
2023-05-05T08:18:34.494Z,16.80
2023-05-05T08:21:01.301Z,16.70
2023-05-05T08:23:28.063Z,17.00
2023-05-05T08:25:54.819Z,17.30
2023-05-05T08:28:23.043Z,17.20
2023-05-05T08:30:50.875Z,17.40
2023-05-05T08:33:18.032Z,17.20
2023-05-05T08:35:45.014Z,17.60
2023-05-05T08:38:12.659Z,17.70
2023-05-05T08:40:40.731Z,17.60
2023-05-05T08:43:07.743Z,17.50
2023-05-05T08:45:34.590Z,17.50
2023-05-05T08:48:05.813Z,17.50
2023-05-05T08:50:33.088Z,17.40
2023-05-05T08:53:11.972Z,17.40
2023-05-05T08:55:52.467Z,17.40
2023-05-05T08:58:19.798Z,17.50
2023-05-05T09:00:46.829Z,17.90
2023-05-05T09:03:14.562Z,17.90
2023-05-05T09:05:43.228Z,17.80
2023-05-05T09:08:11.315Z,17.80
2023-05-05T09:10:42.025Z,17.90
2023-05-05T09:13:09.110Z,18.10
2023-05-05T09:15:35.928Z,18.50
2023-05-05T09:18:03.690Z,18.90
2023-05-05T09:20:35.489Z,19.00
2023-05-05T09:23:12.504Z,18.70
2023-05-05T09:25:40.358Z,19.10
2023-05-05T09:28:12.154Z,19.30
2023-05-05T09:30:40.540Z,19.50
2023-05-05T09:33:08.051Z,19.20
2023-05-05T09:35:52.350Z,19.30
2023-05-05T09:38:20.242Z,19.30
2023-05-05T09:40:52.056Z,19.60
2023-05-05T09:43:21.497Z,19.80
2023-05-05T09:45:49.260Z,20.00
2023-05-05T09:48:27.518Z,20.00
2023-05-05T09:50:55.802Z,20.10
2023-05-05T09:53:24.060Z,20.20
2023-05-05T09:55:58.266Z,20.40
2023-05-05T09:58:30.725Z,20.30
2023-05-05T10:00:59.042Z,20.00
2023-05-05T10:03:26.342Z,20.20
2023-05-05T10:05:57.893Z,20.50
2023-05-05T10:08:30.922Z,20.60
2023-05-05T10:11:06.439Z,20.80
2023-05-05T10:13:42.117Z,21.20
2023-05-05T10:16:11.567Z,21.00
2023-05-05T10:18:42.923Z,20.80
2023-05-05T10:21:12.491Z,21.00
2023-05-05T10:23:49.453Z,21.10
2023-05-05T10:26:19.655Z,21.20
2023-05-05T10:28:52.145Z,21.60
2023-05-05T10:31:29.973Z,21.60
2023-05-05T10:34:10.449Z,21.00
2023-05-05T10:36:38.958Z,21.20
2023-05-05T10:39:10.794Z,21.70
2023-05-05T10:41:38.275Z,22.00
2023-05-05T10:44:06.034Z,21.50
2023-05-05T10:46:32.987Z,20.80
2023-05-05T10:49:07.005Z,20.90
2023-05-05T10:51:56.914Z,21.50
2023-05-05T10:54:32.718Z,21.60
2023-05-05T10:57:04.938Z,22.10
2023-05-05T10:59:37.949Z,22.20
2023-05-05T11:02:26.712Z,22.50
2023-05-05T11:05:14.489Z,22.40
2023-05-05T11:07:43.111Z,22.30
2023-05-05T11:10:12.122Z,22.40
2023-05-05T11:13:03.147Z,22.20
2023-05-05T11:15:30.416Z,21.90
2023-05-05T11:18:07.423Z,22.30
2023-05-05T11:20:39.788Z,21.90
2023-05-05T11:23:06.904Z,21.50
2023-05-05T11:25:41.063Z,21.70
2023-05-05T11:28:09.985Z,22.10
2023-05-05T11:30:57.473Z,22.10
2023-05-05T11:33:38.733Z,22.20
2023-05-05T11:36:07.644Z,22.30
2023-05-05T11:39:06.501Z,22.30
2023-05-05T11:41:36.143Z,22.50
2023-05-05T11:44:16.961Z,22.70
2023-05-05T11:46:53.151Z,23.00
2023-05-05T11:49:36.402Z,23.10
2023-05-05T11:52:12.543Z,22.80
2023-05-05T11:54:48.940Z,22.80
2023-05-05T11:57:17.819Z,22.50
2023-05-05T12:00:05.902Z,22.40
2023-05-05T12:02:33.088Z,22.40
2023-05-05T12:05:01.187Z,22.10
2023-05-05T12:07:30.896Z,21.80
2023-05-05T12:09:58.305Z,21.80
2023-05-05T12:12:36.088Z,21.90
2023-05-05T12:15:03.898Z,22.10
2023-05-05T12:17:43.082Z,21.70
2023-05-05T12:20:11.408Z,22.10
2023-05-05T12:22:39.219Z,22.40
2023-05-05T12:25:08.029Z,22.30
2023-05-05T12:27:38.669Z,22.60
2023-05-05T12:30:22.373Z,22.00
2023-05-05T12:32:49.188Z,22.20
2023-05-05T12:35:17.048Z,22.30
2023-05-05T12:37:53.273Z,22.50
2023-05-05T12:40:47.655Z,22.90
2023-05-05T12:43:32.176Z,22.10
2023-05-05T12:46:03.444Z,22.60
2023-05-05T12:48:30.767Z,22.50
2023-05-05T12:51:23.113Z,22.70
2023-05-05T12:54:07.305Z,22.00
2023-05-05T12:56:47.742Z,22.20
2023-05-05T12:59:23.785Z,22.10
2023-05-05T13:01:52.574Z,22.10
2023-05-05T13:04:21.048Z,22.80
2023-05-05T13:06:49.064Z,22.60
2023-05-05T13:09:30.724Z,22.50
2023-05-05T13:11:57.931Z,22.20
2023-05-05T13:14:24.865Z,22.90
2023-05-05T13:16:52.890Z,23.50
2023-05-05T13:19:19.727Z,23.90
2023-05-05T13:21:46.530Z,23.60
2023-05-05T13:24:26.173Z,23.10
2023-05-05T13:26:58.250Z,22.40
2023-05-05T13:29:29.554Z,23.20
2023-05-05T13:31:58.392Z,23.40
2023-05-05T13:34:25.434Z,23.10
2023-05-05T13:36:52.341Z,23.60
2023-05-05T13:39:19.257Z,23.10
2023-05-05T13:41:46.236Z,23.60
2023-05-05T13:44:14.058Z,23.80
2023-05-05T13:46:42.716Z,23.50
2023-05-05T13:49:09.668Z,24.10
2023-05-05T13:51:38.103Z,24.20
2023-05-05T13:54:05.577Z,24.40
2023-05-05T13:56:32.834Z,24.20
2023-05-05T13:58:59.749Z,23.50
2023-05-05T14:01:26.907Z,22.80
2023-05-05T14:03:55.596Z,22.60
2023-05-05T14:06:24.048Z,22.70
2023-05-05T14:08:51.657Z,22.80
2023-05-05T14:11:20.710Z,23.20
2023-05-05T14:13:48.037Z,23.20
2023-05-05T14:16:15.334Z,23.00
2023-05-05T14:18:42.501Z,23.60
2023-05-05T14:21:09.631Z,23.90
2023-05-05T14:23:36.467Z,23.60
2023-05-05T14:26:03.538Z,23.40
2023-05-05T14:28:30.758Z,22.90
2023-05-05T14:30:57.681Z,23.40
2023-05-05T14:33:24.609Z,23.30
2023-05-05T14:35:51.585Z,22.90
2023-05-05T14:38:18.506Z,22.60
2023-05-05T14:40:45.441Z,22.60
2023-05-05T14:43:12.320Z,23.10
2023-05-05T14:45:39.177Z,22.80
2023-05-05T14:48:06.085Z,23.00
2023-05-05T14:50:32.927Z,22.90
2023-05-05T14:52:59.712Z,22.60
2023-05-05T14:55:26.605Z,23.10
2023-05-05T14:57:53.365Z,23.40
2023-05-05T15:00:20.179Z,23.50
2023-05-05T15:02:48.325Z,23.10
2023-05-05T15:05:15.627Z,23.10
2023-05-05T15:07:42.633Z,22.70
2023-05-05T15:10:09.943Z,22.80
2023-05-05T15:12:36.877Z,23.30
2023-05-05T15:15:03.995Z,23.10
2023-05-05T15:17:31.844Z,22.70
2023-05-05T15:19:58.776Z,22.60
2023-05-05T15:22:26.058Z,22.40
2023-05-05T15:24:53.242Z,22.10
2023-05-05T15:27:20.167Z,22.30
2023-05-05T15:29:47.025Z,22.70
2023-05-05T15:32:14.004Z,22.40
2023-05-05T15:34:40.986Z,22.30
2023-05-05T15:37:07.790Z,22.40
2023-05-05T15:39:34.631Z,22.40
2023-05-05T15:42:04.923Z,22.40
2023-05-05T15:44:32.184Z,22.30
2023-05-05T15:46:59.097Z,22.50
2023-05-05T15:49:25.881Z,22.50
2023-05-05T15:51:52.680Z,22.20
2023-05-05T15:54:19.583Z,22.10
2023-05-05T15:56:46.380Z,22.30
2023-05-05T15:59:13.165Z,22.20
2023-05-05T16:01:40.035Z,22.20
2023-05-05T16:04:06.893Z,22.10
2023-05-05T16:06:33.749Z,21.80
2023-05-05T16:09:00.642Z,22.00
2023-05-05T16:11:27.506Z,22.00
2023-05-05T16:13:54.337Z,22.00
2023-05-05T16:16:21.765Z,22.10
2023-05-05T16:18:48.729Z,21.90
2023-05-05T16:21:15.820Z,21.50
2023-05-05T16:23:42.672Z,21.20
2023-05-05T16:26:09.521Z,21.40
2023-05-05T16:28:37.591Z,21.50
2023-05-05T16:31:04.747Z,21.40
2023-05-05T16:33:31.654Z,21.40
2023-05-05T16:35:58.556Z,21.50
2023-05-05T16:38:25.563Z,21.40
2023-05-05T16:40:52.357Z,21.30
2023-05-05T16:43:19.701Z,21.20
2023-05-05T16:45:46.781Z,21.00
2023-05-05T16:48:14.671Z,20.70
2023-05-05T16:50:41.615Z,20.60
2023-05-05T16:53:09.217Z,20.70
2023-05-05T16:55:36.819Z,20.50
2023-05-05T16:58:04.453Z,20.50
2023-05-05T17:00:31.245Z,20.40
2023-05-05T17:02:58.164Z,20.50
2023-05-05T17:05:25.079Z,20.40
2023-05-05T17:07:52.317Z,20.30
2023-05-05T17:10:19.149Z,20.40
2023-05-05T17:12:46.060Z,20.20
2023-05-05T17:15:12.947Z,20.10
2023-05-05T17:17:41.556Z,20.10
2023-05-05T17:20:10.221Z,20.10
2023-05-05T17:22:37.496Z,20.10
2023-05-05T17:25:05.271Z,20.00
2023-05-05T17:27:32.072Z,19.90
2023-05-05T17:29:58.941Z,19.90
2023-05-05T17:32:25.886Z,19.80
2023-05-05T17:34:52.716Z,19.60
2023-05-05T17:37:19.512Z,19.40
2023-05-05T17:39:46.275Z,19.40
2023-05-05T17:42:13.094Z,19.50
2023-05-05T17:44:39.903Z,19.50
2023-05-05T17:47:07.811Z,19.40
2023-05-05T17:49:34.861Z,19.20
2023-05-05T17:52:01.823Z,18.80
2023-05-05T17:54:28.713Z,18.70
2023-05-05T17:56:55.530Z,18.50
2023-05-05T17:59:22.303Z,18.20
2023-05-05T18:01:49.218Z,18.00
2023-05-05T18:04:16.220Z,17.80
2023-05-05T18:06:43.175Z,17.80
2023-05-05T18:09:36.988Z,17.50
2023-05-05T18:12:03.959Z,17.60
2023-05-05T18:14:30.796Z,17.60
2023-05-05T18:16:57.548Z,17.00
2023-05-05T18:19:24.385Z,16.80
2023-05-05T18:21:52.839Z,16.60
2023-05-05T18:24:20.588Z,16.60
2023-05-05T18:26:50.272Z,16.60
2023-05-05T18:29:18.323Z,16.40
2023-05-05T18:31:48.385Z,16.40
2023-05-05T18:34:16.918Z,16.10
2023-05-05T18:36:43.838Z,15.80
2023-05-05T18:39:10.616Z,15.60
2023-05-05T18:41:37.605Z,15.50
2023-05-05T18:44:04.347Z,15.30
2023-05-05T18:46:31.268Z,14.90
2023-05-05T18:48:58.079Z,14.90
2023-05-05T18:51:24.940Z,15.10
2023-05-05T18:53:51.775Z,15.00
2023-05-05T18:56:18.530Z,15.00
2023-05-05T18:58:45.330Z,15.10
2023-05-05T19:01:12.147Z,15.00
2023-05-05T19:03:38.942Z,15.00
2023-05-05T19:06:06.691Z,14.80
2023-05-05T19:08:33.503Z,14.80
2023-05-05T19:11:00.372Z,14.50
2023-05-05T19:13:27.181Z,14.50
2023-05-05T19:15:57.106Z,14.60
2023-05-05T19:18:24.594Z,14.60
2023-05-05T19:20:51.383Z,14.50
2023-05-05T19:23:18.223Z,14.10
2023-05-05T19:25:45.082Z,13.70
2023-05-05T19:28:12.092Z,13.60
2023-05-05T19:30:38.926Z,13.50
2023-05-05T19:33:05.887Z,13.70
2023-05-05T19:35:32.700Z,13.90
2023-05-05T19:38:00.119Z,14.00
2023-05-05T19:40:26.992Z,13.90
2023-05-05T19:42:53.756Z,13.80
2023-05-05T19:45:21.126Z,13.80
2023-05-05T19:47:48.174Z,13.80
2023-05-05T19:50:17.767Z,13.70
2023-05-05T19:52:44.632Z,13.40
2023-05-05T19:55:13.005Z,13.40
2023-05-05T19:57:40.672Z,13.60
2023-05-05T20:00:10.547Z,13.70
2023-05-05T20:02:37.750Z,13.60
2023-05-05T20:05:05.007Z,13.60
2023-05-05T20:07:31.907Z,13.70
2023-05-05T20:09:58.812Z,13.60
2023-05-05T20:12:25.771Z,13.50
2023-05-05T20:14:52.724Z,13.30
2023-05-05T20:17:21.477Z,13.40
2023-05-05T20:19:48.322Z,13.40
2023-05-05T20:22:15.188Z,13.30
2023-05-05T20:24:41.970Z,13.20
2023-05-05T20:27:09.041Z,13.30
2023-05-05T20:29:36.221Z,13.10
2023-05-05T20:32:03.093Z,13.10
2023-05-05T20:34:30.014Z,12.70
2023-05-05T20:36:58.069Z,12.80
2023-05-05T20:39:25.111Z,12.90
2023-05-05T20:41:51.938Z,12.90
2023-05-05T20:44:18.727Z,12.80
2023-05-05T20:46:45.602Z,12.90
2023-05-05T20:49:12.354Z,12.90
2023-05-05T20:51:39.249Z,12.50
2023-05-05T20:54:06.094Z,12.60
2023-05-05T20:56:32.866Z,12.40
2023-05-05T20:58:59.754Z,12.10
2023-05-05T21:01:27.025Z,12.00
2023-05-05T21:03:53.837Z,12.30
2023-05-05T21:06:20.626Z,12.40
2023-05-05T21:08:47.843Z,12.40
2023-05-05T21:11:14.603Z,12.40
2023-05-05T21:13:41.399Z,12.20
2023-05-05T21:16:08.878Z,12.00
2023-05-05T21:18:35.705Z,11.90
2023-05-05T21:21:02.516Z,12.00
2023-05-05T21:23:30.402Z,11.70
2023-05-05T21:25:57.224Z,11.90
2023-05-05T21:28:24.040Z,12.10
2023-05-05T21:31:10.303Z,12.20
2023-05-05T21:33:38.254Z,12.20
2023-05-05T21:36:06.133Z,11.90
2023-05-05T21:38:32.990Z,11.50
2023-05-05T21:40:59.859Z,11.60
2023-05-05T21:43:28.793Z,11.40
2023-05-05T21:46:00.008Z,11.40
2023-05-05T21:48:27.026Z,11.70
2023-05-05T21:50:54.553Z,11.80
2023-05-05T21:53:21.518Z,11.90
2023-05-05T21:55:48.340Z,12.00
2023-05-05T21:58:15.352Z,11.90
2023-05-05T22:00:42.758Z,12.00
2023-05-05T22:03:09.842Z,12.00
2023-05-05T22:05:36.703Z,11.70
2023-05-05T22:08:03.659Z,11.50
2023-05-05T22:10:30.509Z,11.60
2023-05-05T22:12:58.138Z,11.50
2023-05-05T22:15:29.975Z,11.40
2023-05-05T22:17:59.746Z,11.30
2023-05-05T22:20:26.700Z,11.30
2023-05-05T22:22:53.528Z,11.40
2023-05-05T22:25:20.482Z,11.40
2023-05-05T22:27:47.291Z,11.50
2023-05-05T22:30:14.383Z,11.40
2023-05-05T22:32:43.445Z,11.30
2023-05-05T22:35:10.566Z,11.30
2023-05-05T22:37:37.676Z,11.00
2023-05-05T22:40:05.064Z,10.70
2023-05-05T22:42:31.879Z,10.90
2023-05-05T22:44:58.651Z,10.70
2023-05-05T22:47:25.627Z,10.90
2023-05-05T22:49:52.447Z,10.90
2023-05-05T22:52:19.349Z,10.90
2023-05-05T22:54:46.324Z,11.20
2023-05-05T22:57:13.211Z,11.10
2023-05-05T22:59:39.959Z,11.10
2023-05-05T23:02:06.792Z,11.20
2023-05-05T23:04:33.693Z,11.20
2023-05-05T23:07:00.779Z,11.30
2023-05-05T23:09:27.558Z,11.30
2023-05-05T23:11:54.648Z,11.30
2023-05-05T23:14:21.658Z,11.40
2023-05-05T23:16:48.537Z,11.20
2023-05-05T23:19:15.528Z,11.00
2023-05-05T23:21:52.707Z,10.90
2023-05-05T23:24:20.820Z,10.80
2023-05-05T23:26:47.589Z,10.80
2023-05-05T23:29:14.374Z,10.70
2023-05-05T23:31:41.597Z,10.70
2023-05-05T23:34:08.705Z,10.50
2023-05-05T23:36:35.516Z,10.40
2023-05-05T23:39:02.349Z,10.40
2023-05-05T23:41:29.204Z,10.40
2023-05-05T23:43:56.772Z,10.50
2023-05-05T23:46:24.170Z,10.30
2023-05-05T23:48:51.250Z,10.50
2023-05-05T23:51:18.328Z,10.70
2023-05-05T23:53:45.084Z,10.80
2023-05-05T23:56:12.468Z,10.60
2023-05-05T23:58:39.280Z,10.60
